Florence, Italy

12:03 AM CET on February 14, 2016 (GMT +0100)
Peretola | | Change Station
CLOSE
Current Station
Airport
Location: Florence,
Elevation: 125 ft
Nearby Weather Stations

Elev 125 ft 43.81 °N, 11.20 °E | Updated 13 minutes ago

Scattered Clouds
Scattered Clouds
54 °F
Feels Like 54 °F
N
4
Wind Variable Wind from SW

Today
High -- | Low -- °F
--% Chance of Precip.
Yesterday
High -- | Low -- °F
Precip. -- in
Pressure 29.44 in
Visibility 6.2 miles
Clouds Scattered Clouds 4000 ft
Scattered Clouds 7000 ft
Dew Point 48 °F
Humidity 82%
Rainfall 0.00 in
Snow Depth Not available.
7:16 AM 5:42 PM
Waxing Crescent, 35% visible
METAR LIRQ 132250Z 23003KT 170V270 9999 SCT040 SCT070 12/09 Q0997
Pressure 29.44 in
Visibility 6.2 miles
Clouds Scattered Clouds 4000 ft
Scattered Clouds 7000 ft
Dew Point 48 °F
Humidity 82%
Rainfall 0.00 in
Snow Depth Not available.
7:16 AM 5:42 PM
Waxing Crescent, 35% visible
METAR LIRQ 132250Z 23003KT 170V270 9999 SCT040 SCT070 12/09 Q0997

10-Day Weather Forecast

Almanac

Astronomy

Feb. 14, 2016 Rise Set
Actual Time
Civil Twilight
Nautical Twilight
Astronomical Twilight
Moon
Length of Visible Light
Length of Day
Tomorrow will be .
, % of the Moon is Illuminated

Today's Extremes

Country Highs Country Lows

Community

WunderPhotos

Upload Photos

1,892,692 photos uploaded!

WunderBlog® & News

Nearby

Air Quality

  Air Quality AQ Index Pollutant
Not available.

Snow Depth

Station Depth Elevation

Earthquake Activity

City Distance Mag. Time & Date
Minimum magnitude displayed is 2.5.

Coastal Water Temperatures

Place Temperature

Stations

Nearby Weather Stations

Station Location Temp. Windchill Dew Point Humidity Wind Precip. Elev Updated Type